sensor_id;sensor_type;location;lat;lon;timestamp;P1;durP1;ratioP1;P2;durP2;ratioP2
31638;SDS011;18248;51.522;7.020;2022-11-15T00:00:00;15.52;;;8.88;;
31638;SDS011;18248;51.522;7.020;2022-11-15T00:02:59;14.65;;;8.60;;
31638;SDS011;18248;51.522;7.020;2022-11-15T00:06:01;13.52;;;8.15;;
31638;SDS011;18248;51.522;7.020;2022-11-15T00:09:01;12.18;;;7.93;;
31638;SDS011;18248;51.522;7.020;2022-11-15T00:12:00;10.70;;;7.28;;
31638;SDS011;18248;51.522;7.020;2022-11-15T00:14:59;15.52;;;8.48;;
31638;SDS011;18248;51.522;7.020;2022-11-15T00:17:58;18.20;;;8.52;;
31638;SDS011;18248;51.522;7.020;2022-11-15T00:21:02;11.57;;;7.15;;
31638;SDS011;18248;51.522;7.020;2022-11-15T00:24:04;12.45;;;6.97;;
31638;SDS011;18248;51.522;7.020;2022-11-15T00:27:04;15.63;;;8.07;;
31638;SDS011;18248;51.522;7.020;2022-11-15T00:30:03;12.52;;;6.80;;
31638;SDS011;18248;51.522;7.020;2022-11-15T00:33:05;14.43;;;7.50;;
31638;SDS011;18248;51.522;7.020;2022-11-15T00:36:05;12.75;;;7.10;;
31638;SDS011;18248;51.522;7.020;2022-11-15T00:39:07;10.35;;;6.95;;
31638;SDS011;18248;51.522;7.020;2022-11-15T00:42:05;14.65;;;7.57;;
31638;SDS011;18248;51.522;7.020;2022-11-15T00:45:04;17.00;;;8.52;;
31638;SDS011;18248;51.522;7.020;2022-11-15T00:48:02;13.45;;;7.30;;
31638;SDS011;18248;51.522;7.020;2022-11-15T00:51:01;12.90;;;7.22;;
31638;SDS011;18248;51.522;7.020;2022-11-15T00:54:00;14.10;;;7.30;;
31638;SDS011;18248;51.522;7.020;2022-11-15T00:56:58;12.52;;;7.28;;
31638;SDS011;18248;51.522;7.020;2022-11-15T00:59:57;19.02;;;7.93;;
31638;SDS011;18248;51.522;7.020;2022-11-15T01:02:55;14.10;;;7.82;;
31638;SDS011;18248;51.522;7.020;2022-11-15T01:05:56;18.13;;;7.38;;
31638;SDS011;18248;51.522;7.020;2022-11-15T01:08:57;11.82;;;7.57;;
31638;SDS011;18248;51.522;7.020;2022-11-15T01:11:55;15.10;;;6.43;;
31638;SDS011;18248;51.522;7.020;2022-11-15T01:14:54;16.13;;;7.80;;
31638;SDS011;18248;51.522;7.020;2022-11-15T01:17:52;20.08;;;8.50;;
31638;SDS011;18248;51.522;7.020;2022-11-15T01:20:51;12.85;;;7.18;;
31638;SDS011;18248;51.522;7.020;2022-11-15T01:23:52;15.90;;;6.82;;
31638;SDS011;18248;51.522;7.020;2022-11-15T01:26:54;15.15;;;7.72;;
31638;SDS011;18248;51.522;7.020;2022-11-15T01:29:52;13.13;;;7.45;;
31638;SDS011;18248;51.522;7.020;2022-11-15T01:32:51;15.82;;;7.40;;
31638;SDS011;18248;51.522;7.020;2022-11-15T01:35:49;13.30;;;7.22;;
31638;SDS011;18248;51.522;7.020;2022-11-15T01:38:54;13.63;;;6.43;;
31638;SDS011;18248;51.522;7.020;2022-11-15T01:41:56;11.13;;;6.63;;
31638;SDS011;18248;51.522;7.020;2022-11-15T01:44:55;13.43;;;7.13;;
31638;SDS011;18248;51.522;7.020;2022-11-15T01:47:54;11.50;;;6.43;;
31638;SDS011;18248;51.522;7.020;2022-11-15T01:50:53;11.25;;;7.07;;
31638;SDS011;18248;51.522;7.020;2022-11-15T01:53:53;15.32;;;7.15;;
31638;SDS011;18248;51.522;7.020;2022-11-15T01:56:55;12.23;;;6.68;;
31638;SDS011;18248;51.522;7.020;2022-11-15T01:59:59;10.95;;;6.82;;
31638;SDS011;18248;51.522;7.020;2022-11-15T02:03:01;12.43;;;6.45;;
31638;SDS011;18248;51.522;7.020;2022-11-15T02:06:00;13.05;;;6.47;;
31638;SDS011;18248;51.522;7.020;2022-11-15T02:09:02;18.23;;;6.07;;
31638;SDS011;18248;51.522;7.020;2022-11-15T02:12:01;13.48;;;6.63;;
31638;SDS011;18248;51.522;7.020;2022-11-15T02:15:00;11.75;;;6.30;;
31638;SDS011;18248;51.522;7.020;2022-11-15T02:18:04;11.10;;;6.13;;
31638;SDS011;18248;51.522;7.020;2022-11-15T02:21:24;11.95;;;5.55;;
31638;SDS011;18248;51.522;7.020;2022-11-15T02:25:09;11.75;;;5.82;;
31638;SDS011;18248;51.522;7.020;2022-11-15T02:28:39;14.05;;;6.53;;
31638;SDS011;18248;51.522;7.020;2022-11-15T02:35:15;11.68;;;5.97;;
31638;SDS011;18248;51.522;7.020;2022-11-15T02:38:54;12.35;;;5.55;;
31638;SDS011;18248;51.522;7.020;2022-11-15T02:42:00;11.60;;;6.20;;
31638;SDS011;18248;51.522;7.020;2022-11-15T02:45:03;17.42;;;6.22;;
31638;SDS011;18248;51.522;7.020;2022-11-15T02:48:05;10.27;;;5.25;;
31638;SDS011;18248;51.522;7.020;2022-11-15T02:51:06;9.50;;;5.55;;
31638;SDS011;18248;51.522;7.020;2022-11-15T02:54:05;10.40;;;6.00;;
31638;SDS011;18248;51.522;7.020;2022-11-15T02:57:04;18.88;;;5.47;;
31638;SDS011;18248;51.522;7.020;2022-11-15T03:00:09;12.77;;;5.53;;
31638;SDS011;18248;51.522;7.020;2022-11-15T03:03:36;14.48;;;5.18;;
31638;SDS011;18248;51.522;7.020;2022-11-15T03:06:47;11.73;;;5.75;;
31638;SDS011;18248;51.522;7.020;2022-11-15T03:10:01;8.88;;;5.00;;
31638;SDS011;18248;51.522;7.020;2022-11-15T03:13:26;15.70;;;5.78;;
31638;SDS011;18248;51.522;7.020;2022-11-15T03:16:39;14.90;;;5.78;;
31638;SDS011;18248;51.522;7.020;2022-11-15T03:19:52;11.85;;;5.70;;
31638;SDS011;18248;51.522;7.020;2022-11-15T03:23:06;10.43;;;5.47;;
31638;SDS011;18248;51.522;7.020;2022-11-15T03:26:07;11.00;;;5.68;;
31638;SDS011;18248;51.522;7.020;2022-11-15T03:29:12;11.55;;;5.15;;
31638;SDS011;18248;51.522;7.020;2022-11-15T03:32:16;18.13;;;6.43;;
31638;SDS011;18248;51.522;7.020;2022-11-15T03:35:26;11.90;;;5.60;;
31638;SDS011;18248;51.522;7.020;2022-11-15T03:38:29;12.32;;;5.88;;
31638;SDS011;18248;51.522;7.020;2022-11-15T03:41:31;19.35;;;6.13;;
31638;SDS011;18248;51.522;7.020;2022-11-15T03:45:16;14.93;;;5.65;;
31638;SDS011;18248;51.522;7.020;2022-11-15T03:48:21;11.43;;;5.97;;
31638;SDS011;18248;51.522;7.020;2022-11-15T03:51:23;8.85;;;5.45;;
31638;SDS011;18248;51.522;7.020;2022-11-15T03:54:21;10.68;;;5.82;;
31638;SDS011;18248;51.522;7.020;2022-11-15T03:57:20;12.65;;;5.70;;
31638;SDS011;18248;51.522;7.020;2022-11-15T04:00:18;9.18;;;5.15;;
31638;SDS011;18248;51.522;7.020;2022-11-15T04:03:17;8.75;;;5.32;;
31638;SDS011;18248;51.522;7.020;2022-11-15T04:06:15;9.93;;;5.60;;
31638;SDS011;18248;51.522;7.020;2022-11-15T04:09:14;11.77;;;6.07;;
31638;SDS011;18248;51.522;7.020;2022-11-15T04:12:12;12.40;;;5.00;;
31638;SDS011;18248;51.522;7.020;2022-11-15T04:15:28;9.68;;;5.00;;
31638;SDS011;18248;51.522;7.020;2022-11-15T04:18:28;9.15;;;4.53;;
31638;SDS011;18248;51.522;7.020;2022-11-15T04:21:26;9.27;;;4.85;;
31638;SDS011;18248;51.522;7.020;2022-11-15T04:24:44;7.72;;;4.65;;
31638;SDS011;18248;51.522;7.020;2022-11-15T04:27:42;8.05;;;5.03;;
31638;SDS011;18248;51.522;7.020;2022-11-15T04:30:41;8.40;;;4.65;;
31638;SDS011;18248;51.522;7.020;2022-11-15T04:33:39;7.35;;;4.60;;
31638;SDS011;18248;51.522;7.020;2022-11-15T04:36:39;8.68;;;4.80;;
31638;SDS011;18248;51.522;7.020;2022-11-15T04:39:58;9.80;;;4.80;;
31638;SDS011;18248;51.522;7.020;2022-11-15T04:42:56;9.38;;;5.07;;
31638;SDS011;18248;51.522;7.020;2022-11-15T04:45:55;7.32;;;4.25;;
31638;SDS011;18248;51.522;7.020;2022-11-15T04:48:54;10.90;;;5.03;;
31638;SDS011;18248;51.522;7.020;2022-11-15T04:51:53;6.20;;;4.18;;
31638;SDS011;18248;51.522;7.020;2022-11-15T04:54:51;9.48;;;4.75;;
31638;SDS011;18248;51.522;7.020;2022-11-15T04:57:56;10.93;;;4.60;;
31638;SDS011;18248;51.522;7.020;2022-11-15T05:00:56;7.20;;;4.35;;
31638;SDS011;18248;51.522;7.020;2022-11-15T05:03:55;10.52;;;5.15;;
31638;SDS011;18248;51.522;7.020;2022-11-15T05:07:13;6.55;;;4.30;;
31638;SDS011;18248;51.522;7.020;2022-11-15T05:10:12;7.55;;;4.88;;
31638;SDS011;18248;51.522;7.020;2022-11-15T05:13:11;10.68;;;5.32;;
31638;SDS011;18248;51.522;7.020;2022-11-15T05:16:09;8.10;;;4.45;;
31638;SDS011;18248;51.522;7.020;2022-11-15T05:19:08;14.32;;;5.63;;
31638;SDS011;18248;51.522;7.020;2022-11-15T05:22:06;7.82;;;4.55;;
31638;SDS011;18248;51.522;7.020;2022-11-15T05:25:05;9.63;;;4.72;;
31638;SDS011;18248;51.522;7.020;2022-11-15T05:28:05;9.77;;;4.78;;
31638;SDS011;18248;51.522;7.020;2022-11-15T05:31:07;7.43;;;4.50;;
31638;SDS011;18248;51.522;7.020;2022-11-15T05:34:08;7.63;;;4.47;;
31638;SDS011;18248;51.522;7.020;2022-11-15T05:37:07;8.82;;;4.82;;
31638;SDS011;18248;51.522;7.020;2022-11-15T05:40:06;6.38;;;4.60;;
31638;SDS011;18248;51.522;7.020;2022-11-15T05:43:05;6.97;;;5.05;;
31638;SDS011;18248;51.522;7.020;2022-11-15T05:46:04;8.18;;;5.03;;
31638;SDS011;18248;51.522;7.020;2022-11-15T05:49:06;8.15;;;5.63;;
31638;SDS011;18248;51.522;7.020;2022-11-15T05:52:07;6.40;;;4.95;;
31638;SDS011;18248;51.522;7.020;2022-11-15T05:55:11;9.90;;;6.63;;
31638;SDS011;18248;51.522;7.020;2022-11-15T05:58:10;8.32;;;6.28;;
31638;SDS011;18248;51.522;7.020;2022-11-15T06:01:09;10.50;;;6.68;;
31638;SDS011;18248;51.522;7.020;2022-11-15T06:04:07;12.27;;;7.05;;
31638;SDS011;18248;51.522;7.020;2022-11-15T06:07:06;16.02;;;7.95;;
31638;SDS011;18248;51.522;7.020;2022-11-15T06:10:05;10.73;;;6.75;;
31638;SDS011;18248;51.522;7.020;2022-11-15T06:13:04;9.15;;;7.25;;
31638;SDS011;18248;51.522;7.020;2022-11-15T06:16:02;11.25;;;8.10;;
31638;SDS011;18248;51.522;7.020;2022-11-15T06:19:01;12.27;;;7.38;;
31638;SDS011;18248;51.522;7.020;2022-11-15T06:22:00;9.88;;;7.07;;
31638;SDS011;18248;51.522;7.020;2022-11-15T06:24:58;11.73;;;7.25;;
31638;SDS011;18248;51.522;7.020;2022-11-15T06:27:58;8.88;;;6.25;;
31638;SDS011;18248;51.522;7.020;2022-11-15T06:31:08;8.75;;;7.18;;
31638;SDS011;18248;51.522;7.020;2022-11-15T06:34:08;10.20;;;7.00;;
31638;SDS011;18248;51.522;7.020;2022-11-15T06:37:07;8.15;;;6.15;;
31638;SDS011;18248;51.522;7.020;2022-11-15T06:40:06;9.60;;;6.10;;
31638;SDS011;18248;51.522;7.020;2022-11-15T06:43:07;7.05;;;5.78;;
31638;SDS011;18248;51.522;7.020;2022-11-15T06:46:07;7.07;;;5.65;;
31638;SDS011;18248;51.522;7.020;2022-11-15T06:49:05;9.88;;;5.63;;
31638;SDS011;18248;51.522;7.020;2022-11-15T06:52:04;7.72;;;5.13;;
31638;SDS011;18248;51.522;7.020;2022-11-15T06:55:02;10.02;;;4.60;;
31638;SDS011;18248;51.522;7.020;2022-11-15T06:58:03;6.45;;;5.10;;
31638;SDS011;18248;51.522;7.020;2022-11-15T07:01:03;7.53;;;4.60;;
31638;SDS011;18248;51.522;7.020;2022-11-15T07:04:04;6.33;;;4.30;;
31638;SDS011;18248;51.522;7.020;2022-11-15T07:07:03;7.60;;;4.97;;
31638;SDS011;18248;51.522;7.020;2022-11-15T07:10:01;6.60;;;4.45;;
31638;SDS011;18248;51.522;7.020;2022-11-15T07:13:00;11.65;;;4.55;;
31638;SDS011;18248;51.522;7.020;2022-11-15T07:16:03;6.43;;;4.80;;
31638;SDS011;18248;51.522;7.020;2022-11-15T07:19:03;5.93;;;4.18;;
31638;SDS011;18248;51.522;7.020;2022-11-15T07:22:02;5.78;;;4.28;;
31638;SDS011;18248;51.522;7.020;2022-11-15T07:25:00;6.32;;;3.90;;
31638;SDS011;18248;51.522;7.020;2022-11-15T07:27:59;5.50;;;3.35;;
31638;SDS011;18248;51.522;7.020;2022-11-15T07:31:01;5.38;;;2.85;;
31638;SDS011;18248;51.522;7.020;2022-11-15T07:34:01;4.60;;;3.10;;
31638;SDS011;18248;51.522;7.020;2022-11-15T07:37:00;5.78;;;3.10;;
31638;SDS011;18248;51.522;7.020;2022-11-15T07:40:00;6.97;;;3.20;;
31638;SDS011;18248;51.522;7.020;2022-11-15T07:43:01;5.32;;;2.67;;
31638;SDS011;18248;51.522;7.020;2022-11-15T07:46:04;7.85;;;2.90;;
31638;SDS011;18248;51.522;7.020;2022-11-15T07:49:05;4.53;;;2.55;;
31638;SDS011;18248;51.522;7.020;2022-11-15T07:52:04;3.25;;;2.00;;
31638;SDS011;18248;51.522;7.020;2022-11-15T07:55:02;6.07;;;2.60;;
31638;SDS011;18248;51.522;7.020;2022-11-15T07:58:06;5.47;;;2.00;;
31638;SDS011;18248;51.522;7.020;2022-11-15T08:01:08;3.67;;;1.90;;
31638;SDS011;18248;51.522;7.020;2022-11-15T08:04:09;6.10;;;2.30;;
31638;SDS011;18248;51.522;7.020;2022-11-15T08:07:09;4.32;;;2.40;;
31638;SDS011;18248;51.522;7.020;2022-11-15T08:10:07;5.18;;;2.30;;
31638;SDS011;18248;51.522;7.020;2022-11-15T08:13:07;3.58;;;1.90;;
31638;SDS011;18248;51.522;7.020;2022-11-15T08:16:08;2.33;;;1.75;;
31638;SDS011;18248;51.522;7.020;2022-11-15T08:19:06;3.25;;;1.80;;
31638;SDS011;18248;51.522;7.020;2022-11-15T08:22:05;1.85;;;1.50;;
31638;SDS011;18248;51.522;7.020;2022-11-15T08:25:03;4.18;;;2.13;;
31638;SDS011;18248;51.522;7.020;2022-11-15T08:28:04;10.20;;;2.88;;
31638;SDS011;18248;51.522;7.020;2022-11-15T08:31:04;5.07;;;2.05;;
31638;SDS011;18248;51.522;7.020;2022-11-15T08:34:03;7.47;;;3.22;;
31638;SDS011;18248;51.522;7.020;2022-11-15T08:37:02;4.78;;;3.10;;
31638;SDS011;18248;51.522;7.020;2022-11-15T08:40:03;3.83;;;2.30;;
31638;SDS011;18248;51.522;7.020;2022-11-15T08:43:02;3.38;;;2.30;;
31638;SDS011;18248;51.522;7.020;2022-11-15T08:46:01;2.95;;;1.77;;
31638;SDS011;18248;51.522;7.020;2022-11-15T08:49:00;4.60;;;2.22;;
31638;SDS011;18248;51.522;7.020;2022-11-15T08:51:58;4.53;;;2.15;;
31638;SDS011;18248;51.522;7.020;2022-11-15T08:54:58;9.30;;;2.55;;
31638;SDS011;18248;51.522;7.020;2022-11-15T08:57:57;7.47;;;2.45;;
31638;SDS011;18248;51.522;7.020;2022-11-15T09:00:56;5.35;;;2.33;;
31638;SDS011;18248;51.522;7.020;2022-11-15T09:03:55;5.35;;;2.75;;
31638;SDS011;18248;51.522;7.020;2022-11-15T09:06:54;6.03;;;2.90;;
31638;SDS011;18248;51.522;7.020;2022-11-15T09:09:52;4.72;;;2.53;;
31638;SDS011;18248;51.522;7.020;2022-11-15T09:12:51;5.45;;;2.88;;
31638;SDS011;18248;51.522;7.020;2022-11-15T09:15:49;4.10;;;2.92;;
31638;SDS011;18248;51.522;7.020;2022-11-15T09:18:49;8.27;;;3.15;;
31638;SDS011;18248;51.522;7.020;2022-11-15T09:21:48;4.15;;;2.58;;
31638;SDS011;18248;51.522;7.020;2022-11-15T09:24:48;4.32;;;3.00;;
31638;SDS011;18248;51.522;7.020;2022-11-15T09:27:46;6.70;;;2.65;;
31638;SDS011;18248;51.522;7.020;2022-11-15T09:30:45;4.07;;;2.45;;
31638;SDS011;18248;51.522;7.020;2022-11-15T09:33:46;5.97;;;2.30;;
31638;SDS011;18248;51.522;7.020;2022-11-15T09:36:44;3.67;;;1.90;;
31638;SDS011;18248;51.522;7.020;2022-11-15T09:39:43;6.50;;;2.28;;
31638;SDS011;18248;51.522;7.020;2022-11-15T09:42:45;5.25;;;1.63;;
31638;SDS011;18248;51.522;7.020;2022-11-15T09:49:06;3.92;;;1.70;;
31638;SDS011;18248;51.522;7.020;2022-11-15T09:52:07;4.65;;;1.77;;
31638;SDS011;18248;51.522;7.020;2022-11-15T09:55:10;3.80;;;1.45;;
31638;SDS011;18248;51.522;7.020;2022-11-15T09:58:26;6.38;;;1.38;;
31638;SDS011;18248;51.522;7.020;2022-11-15T10:01:53;4.55;;;1.25;;
31638;SDS011;18248;51.522;7.020;2022-11-15T10:05:20;3.30;;;1.23;;
31638;SDS011;18248;51.522;7.020;2022-11-15T10:08:24;8.18;;;1.70;;
31638;SDS011;18248;51.522;7.020;2022-11-15T10:11:43;2.70;;;1.38;;
31638;SDS011;18248;51.522;7.020;2022-11-15T10:14:42;4.95;;;1.65;;
31638;SDS011;18248;51.522;7.020;2022-11-15T10:20:52;4.78;;;1.02;;
31638;SDS011;18248;51.522;7.020;2022-11-15T10:23:57;3.30;;;1.30;;
31638;SDS011;18248;51.522;7.020;2022-11-15T10:26:56;3.88;;;1.55;;
31638;SDS011;18248;51.522;7.020;2022-11-15T10:29:55;8.00;;;1.67;;
31638;SDS011;18248;51.522;7.020;2022-11-15T10:32:53;3.92;;;1.20;;
31638;SDS011;18248;51.522;7.020;2022-11-15T10:39:13;3.58;;;1.20;;
31638;SDS011;18248;51.522;7.020;2022-11-15T10:42:25;4.40;;;1.45;;
31638;SDS011;18248;51.522;7.020;2022-11-15T10:45:26;4.05;;;1.33;;
31638;SDS011;18248;51.522;7.020;2022-11-15T10:48:26;3.65;;;1.10;;
31638;SDS011;18248;51.522;7.020;2022-11-15T10:51:26;5.55;;;1.30;;
31638;SDS011;18248;51.522;7.020;2022-11-15T10:54:30;1.95;;;0.90;;
31638;SDS011;18248;51.522;7.020;2022-11-15T10:57:37;5.82;;;1.35;;
31638;SDS011;18248;51.522;7.020;2022-11-15T11:00:37;5.65;;;1.63;;
31638;SDS011;18248;51.522;7.020;2022-11-15T11:03:38;4.20;;;1.23;;
31638;SDS011;18248;51.522;7.020;2022-11-15T11:06:47;5.22;;;1.88;;
31638;SDS011;18248;51.522;7.020;2022-11-15T11:09:57;2.67;;;1.10;;
31638;SDS011;18248;51.522;7.020;2022-11-15T11:27:18;2.17;;;1.00;;
31638;SDS011;18248;51.522;7.020;2022-11-15T11:30:14;4.07;;;1.40;;
31638;SDS011;18248;51.522;7.020;2022-11-15T11:33:43;10.85;;;1.52;;
31638;SDS011;18248;51.522;7.020;2022-11-15T11:37:52;2.42;;;1.15;;
31638;SDS011;18248;51.522;7.020;2022-11-15T11:40:27;3.88;;;1.00;;
31638;SDS011;18248;51.522;7.020;2022-11-15T11:43:32;4.50;;;1.13;;
31638;SDS011;18248;51.522;7.020;2022-11-15T11:50:05;5.05;;;1.30;;
31638;SDS011;18248;51.522;7.020;2022-11-15T11:56:26;8.73;;;1.23;;
31638;SDS011;18248;51.522;7.020;2022-11-15T12:02:37;1.75;;;0.80;;
31638;SDS011;18248;51.522;7.020;2022-11-15T12:05:40;3.65;;;1.00;;
31638;SDS011;18248;51.522;7.020;2022-11-15T12:09:00;2.40;;;0.90;;
31638;SDS011;18248;51.522;7.020;2022-11-15T12:15:45;5.68;;;1.30;;
31638;SDS011;18248;51.522;7.020;2022-11-15T12:18:53;5.45;;;2.03;;
31638;SDS011;18248;51.522;7.020;2022-11-15T12:31:47;2.13;;;1.00;;
31638;SDS011;18248;51.522;7.020;2022-11-15T12:34:48;3.63;;;1.02;;
31638;SDS011;18248;51.522;7.020;2022-11-15T12:37:49;3.40;;;1.40;;
31638;SDS011;18248;51.522;7.020;2022-11-15T12:47:29;4.13;;;1.30;;
31638;SDS011;18248;51.522;7.020;2022-11-15T12:53:57;2.42;;;0.77;;
31638;SDS011;18248;51.522;7.020;2022-11-15T13:00:46;5.00;;;1.00;;
31638;SDS011;18248;51.522;7.020;2022-11-15T13:03:22;3.83;;;1.20;;
31638;SDS011;18248;51.522;7.020;2022-11-15T13:06:37;2.97;;;1.05;;
31638;SDS011;18248;51.522;7.020;2022-11-15T13:12:49;4.68;;;1.30;;
31638;SDS011;18248;51.522;7.020;2022-11-15T13:15:53;4.43;;;0.77;;
31638;SDS011;18248;51.522;7.020;2022-11-15T13:18:54;7.55;;;1.08;;
31638;SDS011;18248;51.522;7.020;2022-11-15T13:21:55;4.28;;;1.58;;
31638;SDS011;18248;51.522;7.020;2022-11-15T13:25:17;5.22;;;1.67;;
31638;SDS011;18248;51.522;7.020;2022-11-15T13:31:40;7.90;;;3.13;;
31638;SDS011;18248;51.522;7.020;2022-11-15T13:34:44;6.15;;;2.00;;
31638;SDS011;18248;51.522;7.020;2022-11-15T13:37:45;4.93;;;1.10;;
31638;SDS011;18248;51.522;7.020;2022-11-15T13:40:44;6.90;;;1.92;;
31638;SDS011;18248;51.522;7.020;2022-11-15T13:43:43;7.68;;;1.70;;
31638;SDS011;18248;51.522;7.020;2022-11-15T13:46:43;6.82;;;1.58;;
31638;SDS011;18248;51.522;7.020;2022-11-15T13:49:42;6.40;;;1.52;;
31638;SDS011;18248;51.522;7.020;2022-11-15T13:52:41;5.35;;;1.17;;
31638;SDS011;18248;51.522;7.020;2022-11-15T13:55:44;6.43;;;1.10;;
31638;SDS011;18248;51.522;7.020;2022-11-15T13:58:43;5.13;;;1.02;;
31638;SDS011;18248;51.522;7.020;2022-11-15T14:01:42;5.05;;;1.27;;
31638;SDS011;18248;51.522;7.020;2022-11-15T14:04:55;4.65;;;1.10;;
31638;SDS011;18248;51.522;7.020;2022-11-15T14:07:57;3.47;;;1.08;;
31638;SDS011;18248;51.522;7.020;2022-11-15T14:11:09;5.60;;;0.70;;
31638;SDS011;18248;51.522;7.020;2022-11-15T14:14:15;3.95;;;0.88;;
31638;SDS011;18248;51.522;7.020;2022-11-15T14:20:28;3.58;;;1.00;;
31638;SDS011;18248;51.522;7.020;2022-11-15T14:23:30;5.03;;;1.40;;
31638;SDS011;18248;51.522;7.020;2022-11-15T14:26:31;4.80;;;1.48;;
31638;SDS011;18248;51.522;7.020;2022-11-15T14:29:31;6.40;;;1.20;;
31638;SDS011;18248;51.522;7.020;2022-11-15T14:32:37;6.68;;;1.35;;
31638;SDS011;18248;51.522;7.020;2022-11-15T14:35:44;5.13;;;1.17;;
31638;SDS011;18248;51.522;7.020;2022-11-15T14:38:43;4.55;;;1.10;;
31638;SDS011;18248;51.522;7.020;2022-11-15T14:41:41;5.07;;;1.40;;
31638;SDS011;18248;51.522;7.020;2022-11-15T14:44:41;4.78;;;1.35;;
31638;SDS011;18248;51.522;7.020;2022-11-15T14:47:40;3.90;;;1.02;;
31638;SDS011;18248;51.522;7.020;2022-11-15T14:50:39;2.20;;;0.90;;
31638;SDS011;18248;51.522;7.020;2022-11-15T14:53:37;7.63;;;1.25;;
31638;SDS011;18248;51.522;7.020;2022-11-15T14:56:36;10.65;;;1.70;;
31638;SDS011;18248;51.522;7.020;2022-11-15T14:59:35;8.50;;;3.65;;
31638;SDS011;18248;51.522;7.020;2022-11-15T15:02:33;6.53;;;2.00;;
31638;SDS011;18248;51.522;7.020;2022-11-15T15:05:42;6.03;;;2.15;;
31638;SDS011;18248;51.522;7.020;2022-11-15T15:08:41;5.40;;;1.60;;
31638;SDS011;18248;51.522;7.020;2022-11-15T15:11:40;3.85;;;1.42;;
31638;SDS011;18248;51.522;7.020;2022-11-15T15:14:38;9.30;;;2.10;;
31638;SDS011;18248;51.522;7.020;2022-11-15T15:17:37;6.50;;;1.63;;
31638;SDS011;18248;51.522;7.020;2022-11-15T15:20:36;10.23;;;1.80;;
31638;SDS011;18248;51.522;7.020;2022-11-15T15:23:37;7.75;;;1.88;;
31638;SDS011;18248;51.522;7.020;2022-11-15T15:26:36;5.57;;;2.10;;
31638;SDS011;18248;51.522;7.020;2022-11-15T15:29:36;7.97;;;1.85;;
31638;SDS011;18248;51.522;7.020;2022-11-15T15:32:34;5.68;;;2.08;;
31638;SDS011;18248;51.522;7.020;2022-11-15T15:35:34;7.43;;;1.98;;
31638;SDS011;18248;51.522;7.020;2022-11-15T15:38:33;6.47;;;1.50;;
31638;SDS011;18248;51.522;7.020;2022-11-15T15:41:31;6.28;;;1.90;;
31638;SDS011;18248;51.522;7.020;2022-11-15T15:44:30;5.70;;;1.80;;
31638;SDS011;18248;51.522;7.020;2022-11-15T15:47:28;5.13;;;1.60;;
31638;SDS011;18248;51.522;7.020;2022-11-15T15:50:28;4.13;;;1.60;;
31638;SDS011;18248;51.522;7.020;2022-11-15T15:53:28;5.28;;;1.75;;
31638;SDS011;18248;51.522;7.020;2022-11-15T15:56:28;6.40;;;1.80;;
31638;SDS011;18248;51.522;7.020;2022-11-15T15:59:27;4.63;;;1.70;;
31638;SDS011;18248;51.522;7.020;2022-11-15T16:02:26;6.72;;;1.75;;
31638;SDS011;18248;51.522;7.020;2022-11-15T16:05:26;3.97;;;1.45;;
31638;SDS011;18248;51.522;7.020;2022-11-15T16:08:24;3.35;;;1.42;;
31638;SDS011;18248;51.522;7.020;2022-11-15T16:11:25;2.30;;;1.30;;
31638;SDS011;18248;51.522;7.020;2022-11-15T16:14:23;4.50;;;2.03;;
31638;SDS011;18248;51.522;7.020;2022-11-15T16:17:26;4.78;;;1.80;;
31638;SDS011;18248;51.522;7.020;2022-11-15T16:23:28;6.72;;;1.63;;
31638;SDS011;18248;51.522;7.020;2022-11-15T16:26:27;8.80;;;1.90;;
31638;SDS011;18248;51.522;7.020;2022-11-15T16:29:27;3.35;;;1.50;;
31638;SDS011;18248;51.522;7.020;2022-11-15T16:32:26;2.75;;;1.60;;
31638;SDS011;18248;51.522;7.020;2022-11-15T16:35:25;3.50;;;1.55;;
31638;SDS011;18248;51.522;7.020;2022-11-15T16:38:23;4.28;;;1.33;;
31638;SDS011;18248;51.522;7.020;2022-11-15T16:41:22;4.40;;;1.75;;
31638;SDS011;18248;51.522;7.020;2022-11-15T16:44:20;3.85;;;1.52;;
31638;SDS011;18248;51.522;7.020;2022-11-15T16:47:21;6.93;;;1.83;;
31638;SDS011;18248;51.522;7.020;2022-11-15T16:50:22;5.00;;;1.63;;
31638;SDS011;18248;51.522;7.020;2022-11-15T16:53:24;6.50;;;2.13;;
31638;SDS011;18248;51.522;7.020;2022-11-15T16:56:24;3.40;;;1.45;;
31638;SDS011;18248;51.522;7.020;2022-11-15T16:59:25;4.00;;;1.60;;
31638;SDS011;18248;51.522;7.020;2022-11-15T17:02:23;2.70;;;1.52;;
31638;SDS011;18248;51.522;7.020;2022-11-15T17:05:25;4.20;;;1.73;;
31638;SDS011;18248;51.522;7.020;2022-11-15T17:08:24;3.28;;;1.80;;
31638;SDS011;18248;51.522;7.020;2022-11-15T17:11:23;3.33;;;1.95;;
31638;SDS011;18248;51.522;7.020;2022-11-15T17:14:21;3.75;;;1.70;;
31638;SDS011;18248;51.522;7.020;2022-11-15T17:17:20;4.68;;;2.10;;
31638;SDS011;18248;51.522;7.020;2022-11-15T17:20:20;5.65;;;1.88;;
31638;SDS011;18248;51.522;7.020;2022-11-15T17:23:20;9.63;;;2.30;;
31638;SDS011;18248;51.522;7.020;2022-11-15T17:26:18;2.38;;;1.63;;
31638;SDS011;18248;51.522;7.020;2022-11-15T17:29:18;3.55;;;1.90;;
31638;SDS011;18248;51.522;7.020;2022-11-15T17:32:16;5.95;;;3.17;;
31638;SDS011;18248;51.522;7.020;2022-11-15T17:35:15;8.60;;;2.80;;
31638;SDS011;18248;51.522;7.020;2022-11-15T17:38:13;4.45;;;2.25;;
31638;SDS011;18248;51.522;7.020;2022-11-15T17:41:12;5.93;;;2.60;;
31638;SDS011;18248;51.522;7.020;2022-11-15T17:44:12;2.72;;;1.65;;
31638;SDS011;18248;51.522;7.020;2022-11-15T17:47:11;3.42;;;1.75;;
31638;SDS011;18248;51.522;7.020;2022-11-15T17:50:09;5.25;;;1.73;;
31638;SDS011;18248;51.522;7.020;2022-11-15T17:53:08;4.95;;;2.08;;
31638;SDS011;18248;51.522;7.020;2022-11-15T17:56:09;5.75;;;2.05;;
31638;SDS011;18248;51.522;7.020;2022-11-15T17:59:09;3.17;;;1.50;;
31638;SDS011;18248;51.522;7.020;2022-11-15T18:02:08;3.40;;;1.73;;
31638;SDS011;18248;51.522;7.020;2022-11-15T18:05:07;7.75;;;2.10;;
31638;SDS011;18248;51.522;7.020;2022-11-15T18:08:05;3.63;;;2.03;;
31638;SDS011;18248;51.522;7.020;2022-11-15T18:11:05;2.88;;;1.60;;
31638;SDS011;18248;51.522;7.020;2022-11-15T18:14:12;4.95;;;1.90;;
31638;SDS011;18248;51.522;7.020;2022-11-15T18:17:11;4.20;;;1.45;;
31638;SDS011;18248;51.522;7.020;2022-11-15T18:20:10;5.10;;;1.85;;
31638;SDS011;18248;51.522;7.020;2022-11-15T18:23:09;5.93;;;1.90;;
31638;SDS011;18248;51.522;7.020;2022-11-15T18:26:11;3.15;;;1.60;;
31638;SDS011;18248;51.522;7.020;2022-11-15T18:32:14;2.88;;;1.70;;
31638;SDS011;18248;51.522;7.020;2022-11-15T18:35:14;3.53;;;2.00;;
31638;SDS011;18248;51.522;7.020;2022-11-15T18:38:13;4.10;;;2.22;;
31638;SDS011;18248;51.522;7.020;2022-11-15T18:41:17;3.13;;;2.00;;
31638;SDS011;18248;51.522;7.020;2022-11-15T18:44:17;2.03;;;1.75;;
31638;SDS011;18248;51.522;7.020;2022-11-15T18:47:16;2.53;;;1.77;;
31638;SDS011;18248;51.522;7.020;2022-11-15T18:50:15;2.65;;;1.60;;
31638;SDS011;18248;51.522;7.020;2022-11-15T18:53:14;5.57;;;2.72;;
31638;SDS011;18248;51.522;7.020;2022-11-15T18:56:14;3.35;;;2.20;;
31638;SDS011;18248;51.522;7.020;2022-11-15T18:59:14;4.63;;;2.40;;
31638;SDS011;18248;51.522;7.020;2022-11-15T19:02:13;4.47;;;2.22;;
31638;SDS011;18248;51.522;7.020;2022-11-15T19:05:11;2.78;;;1.80;;
31638;SDS011;18248;51.522;7.020;2022-11-15T19:08:12;3.78;;;1.80;;
31638;SDS011;18248;51.522;7.020;2022-11-15T19:11:12;2.55;;;1.55;;
31638;SDS011;18248;51.522;7.020;2022-11-15T19:14:14;3.90;;;2.67;;
31638;SDS011;18248;51.522;7.020;2022-11-15T19:17:14;2.67;;;1.83;;
31638;SDS011;18248;51.522;7.020;2022-11-15T19:20:12;3.40;;;1.60;;
31638;SDS011;18248;51.522;7.020;2022-11-15T19:23:11;4.60;;;1.92;;
31638;SDS011;18248;51.522;7.020;2022-11-15T19:26:10;3.20;;;2.28;;
31638;SDS011;18248;51.522;7.020;2022-11-15T19:29:10;4.40;;;2.40;;